This is the latest recevied weather packets stored in our database for station/object UA1CAS-13. If no packets are shown the sender has not sent any weather packets the latest 10 day(s).
| Time | Temp. | Humidity | Pressure | Rain* | Wind** | Luminosity | Snow |
|---|---|---|---|---|---|---|---|
| 1777834668 | 13.89° C | 70% | 1005 hPa | - | - | - | - |
| 1777833766 | 14.44° C | 68% | 1005 hPa | - | - | - | - |
| 1777832865 | 15° C | 66% | 1005 hPa | - | - | - | - |
| 1777831964 | 15° C | 65% | 1005 hPa | - | - | - | - |
| 1777831063 | 15.56° C | 62% | 1005 hPa | - | - | - | - |
| 1777830162 | 15.56° C | 61% | 1005 hPa | - | - | - | - |
| 1777829261 | 16.11° C | 59% | 1005 hPa | - | - | - | - |
| 1777828360 | 16.11° C | 59% | 1005 hPa | - | - | - | - |
| 1777827459 | 16.11° C | 59% | 1005 hPa | - | - | - | - |
| 1777826558 | 16.67° C | 57% | 1005 hPa | - | - | - | - |
| 1777825657 | 16.67° C | 57% | 1005 hPa | - | - | - | - |
| 1777824756 | 16.67° C | 57% | 1005 hPa | - | - | - | - |
| 1777823854 | 16.67° C | 56% | 1005 hPa | - | - | - | - |
| 1777822953 | 17.22° C | 56% | 1005 hPa | - | - | - | - |
| 1777822052 | 17.22° C | 54% | 1005 hPa | - | - | - | - |
| 1777821151 | 16.67° C | 57% | 1005 hPa | - | - | - | - |
| 1777820250 | 16.67° C | 56% | 1005 hPa | - | - | - | - |
| 1777819349 | 17.22° C | 56% | 1005 hPa | - | - | - | - |
| 1777818448 | 17.22° C | 54% | 1005 hPa | - | - | - | - |
| 1777817547 | 17.22° C | 54% | 1004 hPa | - | - | - | - |
| 1777816646 | 20° C | 52% | 1004 hPa | - | - | - | - |
| 1777815745 | 17.78° C | 60% | 1004 hPa | - | - | - | - |
| 1777814844 | 17.22° C | 62% | 1004 hPa | - | - | - | - |
| 1777813942 | 16.67° C | 66% | 1004 hPa | - | - | - | - |
| 1777813041 | 16.11° C | 66% | 1004 hPa | - | - | - | - |
* Rain since midnight (hover to see other rain measurements)
** Current wind speed in m/s (hover to see current wind gust speed)